createdAt,value
2017-12-08T00:00:13.834Z,44.50
2017-12-08T00:00:48.928Z,38.40
2017-12-08T00:01:24.038Z,39.00
2017-12-08T00:01:59.625Z,38.30
2017-12-08T00:02:34.844Z,34.70
2017-12-08T00:03:10.132Z,37.40
2017-12-08T00:03:45.552Z,37.20
2017-12-08T00:04:20.967Z,40.70
2017-12-08T00:04:56.398Z,42.40
2017-12-08T00:05:31.683Z,41.60
2017-12-08T00:06:07.196Z,41.80
2017-12-08T00:06:42.582Z,42.20
2017-12-08T00:07:17.894Z,42.50
2017-12-08T00:07:53.408Z,40.50
2017-12-08T00:08:28.819Z,40.90
2017-12-08T00:09:04.312Z,42.20
2017-12-08T00:09:39.858Z,44.10
2017-12-08T00:10:15.747Z,49.30
2017-12-08T00:10:51.256Z,48.00
2017-12-08T00:11:26.536Z,39.30
2017-12-08T00:12:01.655Z,36.30
2017-12-08T00:12:36.952Z,40.80
2017-12-08T00:13:12.379Z,46.00
2017-12-08T00:13:47.751Z,39.30
2017-12-08T00:14:22.966Z,37.30
2017-12-08T00:14:58.482Z,42.40
2017-12-08T00:15:34.199Z,42.60
2017-12-08T00:16:09.796Z,40.30
2017-12-08T00:16:45.127Z,38.00
2017-12-08T00:17:20.514Z,38.80
2017-12-08T00:17:55.823Z,34.60
2017-12-08T00:18:31.302Z,30.20
2017-12-08T00:19:06.937Z,39.40
2017-12-08T00:19:42.217Z,41.20
2017-12-08T00:20:17.767Z,45.40
2017-12-08T00:20:53.155Z,40.10
2017-12-08T00:21:28.482Z,37.00
2017-12-08T00:22:03.766Z,43.60
2017-12-08T00:22:39.185Z,46.70
2017-12-08T00:23:14.463Z,38.30
2017-12-08T00:23:49.679Z,35.40
2017-12-08T00:24:25.067Z,38.90
2017-12-08T00:25:00.386Z,42.90
2017-12-08T00:25:36.010Z,43.90
2017-12-08T00:26:11.439Z,39.80
2017-12-08T00:26:46.623Z,32.70
2017-12-08T00:27:22.234Z,40.30
2017-12-08T00:27:57.323Z,38.00
2017-12-08T00:28:32.650Z,37.60
2017-12-08T00:29:07.831Z,41.40
2017-12-08T00:29:43.168Z,40.50
2017-12-08T00:30:18.446Z,46.90
2017-12-08T00:30:53.591Z,41.90
2017-12-08T00:31:29.110Z,37.50
2017-12-08T00:32:04.526Z,40.40
2017-12-08T00:32:39.620Z,41.20
2017-12-08T00:33:15.530Z,43.50
2017-12-08T00:33:50.817Z,46.10
2017-12-08T00:34:28.039Z,44.60
2017-12-08T00:35:03.532Z,43.50
2017-12-08T00:35:38.849Z,43.50
2017-12-08T00:36:14.079Z,39.20
2017-12-08T00:36:49.399Z,37.40
2017-12-08T00:37:24.780Z,47.70
2017-12-08T00:38:00.299Z,48.90
2017-12-08T00:38:35.585Z,43.10
2017-12-08T00:39:10.910Z,46.70
2017-12-08T00:39:46.299Z,44.00
2017-12-08T00:40:21.608Z,39.40
2017-12-08T00:40:56.895Z,39.80
2017-12-08T00:41:32.347Z,43.50
2017-12-08T00:42:07.736Z,41.60
2017-12-08T00:42:43.447Z,42.70
2017-12-08T00:43:19.232Z,38.10
2017-12-08T00:43:54.558Z,33.70
2017-12-08T00:44:29.743Z,37.10
2017-12-08T00:45:05.161Z,47.80
2017-12-08T00:45:41.259Z,44.80
2017-12-08T00:46:17.082Z,42.20
2017-12-08T00:46:52.197Z,34.50
2017-12-08T00:47:27.416Z,37.70
2017-12-08T00:48:02.602Z,38.90
2017-12-08T00:48:38.017Z,36.80
2017-12-08T00:49:13.412Z,37.50
2017-12-08T00:49:48.631Z,42.30
2017-12-08T00:50:23.823Z,36.90
2017-12-08T00:50:59.549Z,37.40
2017-12-08T00:51:34.961Z,39.40
2017-12-08T00:52:10.309Z,49.50
2017-12-08T00:52:45.700Z,46.40
2017-12-08T00:53:21.221Z,44.00
2017-12-08T00:53:56.507Z,44.80
2017-12-08T00:54:32.029Z,47.50
2017-12-08T00:55:07.327Z,42.60
2017-12-08T00:55:42.742Z,43.30
2017-12-08T00:56:18.143Z,46.20
2017-12-08T00:56:53.354Z,40.70
2017-12-08T00:57:28.578Z,51.00
2017-12-08T00:58:04.089Z,49.10
2017-12-08T00:58:39.677Z,39.20
2017-12-08T00:59:15.093Z,43.10
2017-12-08T00:59:50.274Z,38.80
2017-12-08T01:00:25.908Z,38.60
2017-12-08T01:01:01.187Z,42.40
2017-12-08T01:01:36.611Z,43.90
2017-12-08T01:02:12.085Z,42.30
2017-12-08T01:02:47.340Z,44.40
2017-12-08T01:03:22.625Z,38.70
2017-12-08T01:03:57.752Z,41.00
2017-12-08T01:04:33.045Z,39.00
2017-12-08T01:05:08.557Z,41.20
2017-12-08T01:05:44.060Z,41.70
2017-12-08T01:06:19.461Z,42.90
2017-12-08T01:06:54.741Z,42.10
2017-12-08T01:07:30.355Z,44.30
2017-12-08T01:08:05.874Z,44.50
2017-12-08T01:08:41.482Z,38.50
2017-12-08T01:09:16.664Z,36.90
2017-12-08T01:09:52.376Z,39.00
2017-12-08T01:10:27.760Z,40.70
2017-12-08T01:11:03.176Z,44.80
2017-12-08T01:11:38.458Z,44.90
2017-12-08T01:12:13.881Z,39.50
2017-12-08T01:12:49.161Z,35.40
2017-12-08T01:13:26.931Z,42.20
2017-12-08T01:14:02.322Z,35.40
2017-12-08T01:14:37.543Z,39.00
2017-12-08T01:15:12.828Z,40.40
2017-12-08T01:15:48.135Z,44.30
2017-12-08T01:16:23.522Z,41.20
2017-12-08T01:16:58.734Z,47.70
2017-12-08T01:17:34.010Z,49.50
2017-12-08T01:18:09.329Z,42.10
2017-12-08T01:18:44.738Z,33.80
2017-12-08T01:19:19.853Z,36.10
2017-12-08T01:19:55.131Z,38.00
2017-12-08T01:20:30.741Z,43.70
2017-12-08T01:21:06.223Z,44.30
2017-12-08T01:21:44.134Z,38.90
2017-12-08T01:22:19.412Z,33.50
2017-12-08T01:22:55.621Z,32.00
2017-12-08T01:23:30.907Z,41.60
2017-12-08T01:24:06.345Z,42.20
2017-12-08T01:24:41.922Z,43.10
2017-12-08T01:25:17.148Z,42.20
2017-12-08T01:25:52.524Z,42.80
2017-12-08T01:26:28.437Z,40.60
2017-12-08T01:27:03.620Z,45.00
2017-12-08T01:27:39.035Z,42.60
2017-12-08T01:28:14.310Z,33.50
2017-12-08T01:28:49.527Z,37.30
2017-12-08T01:29:25.147Z,38.30
2017-12-08T01:30:00.446Z,40.20
2017-12-08T01:30:35.533Z,38.20
2017-12-08T01:31:10.845Z,34.20
2017-12-08T01:31:46.525Z,45.30
2017-12-08T01:32:22.039Z,45.60
2017-12-08T01:32:57.444Z,45.80
2017-12-08T01:33:32.847Z,43.90
2017-12-08T01:34:08.036Z,47.50
2017-12-08T01:34:43.688Z,45.20
2017-12-08T01:35:18.969Z,42.00
2017-12-08T01:35:54.077Z,38.20
2017-12-08T01:36:29.354Z,48.00
2017-12-08T01:37:04.968Z,41.30
2017-12-08T01:37:41.761Z,37.40
2017-12-08T01:38:17.166Z,44.40
2017-12-08T01:38:52.850Z,42.90
2017-12-08T01:39:28.160Z,38.60
2017-12-08T01:40:03.569Z,44.10
2017-12-08T01:40:38.871Z,38.60
2017-12-08T01:41:14.058Z,39.70
2017-12-08T01:41:49.571Z,39.00
2017-12-08T01:42:25.851Z,46.00
2017-12-08T01:43:01.272Z,43.10
2017-12-08T01:43:36.853Z,35.40
2017-12-08T01:44:12.368Z,37.90
2017-12-08T01:44:47.948Z,45.20
2017-12-08T01:45:23.289Z,37.40
2017-12-08T01:45:58.574Z,36.10
2017-12-08T01:46:33.782Z,38.80
2017-12-08T01:47:09.763Z,41.10
2017-12-08T01:47:45.172Z,37.40
2017-12-08T01:48:20.462Z,37.70
2017-12-08T01:48:55.772Z,40.30
2017-12-08T01:49:31.151Z,37.00
2017-12-08T01:50:06.361Z,41.70
2017-12-08T01:50:42.472Z,47.00
2017-12-08T01:51:17.880Z,39.70
2017-12-08T01:51:53.163Z,34.20
2017-12-08T01:52:28.671Z,44.60
2017-12-08T01:53:03.946Z,41.40
2017-12-08T01:53:41.258Z,34.60
2017-12-08T01:54:16.638Z,36.80
2017-12-08T01:54:51.850Z,38.90
2017-12-08T01:55:27.241Z,36.40
2017-12-08T01:56:02.587Z,34.20
2017-12-08T01:56:37.875Z,37.40
2017-12-08T01:57:13.086Z,40.00
2017-12-08T01:57:51.880Z,35.40
2017-12-08T01:58:27.195Z,25.70
2017-12-08T01:59:02.375Z,29.80
2017-12-08T01:59:37.485Z,33.60
2017-12-08T02:00:12.667Z,32.20
2017-12-08T02:00:48.085Z,32.20
2017-12-08T02:01:23.492Z,45.90
2017-12-08T02:01:58.705Z,48.10
2017-12-08T02:02:35.014Z,42.30
2017-12-08T02:03:10.536Z,31.70
2017-12-08T02:03:47.908Z,33.20
2017-12-08T02:04:23.514Z,35.90
2017-12-08T02:04:59.496Z,35.20
2017-12-08T02:05:34.993Z,36.60
2017-12-08T02:06:10.371Z,36.20
2017-12-08T02:06:45.813Z,34.90
2017-12-08T02:07:22.684Z,31.80
2017-12-08T02:07:59.292Z,39.70
2017-12-08T02:08:34.585Z,36.00
2017-12-08T02:09:09.795Z,35.00
2017-12-08T02:09:45.079Z,31.60
2017-12-08T02:10:20.680Z,32.50
2017-12-08T02:10:55.959Z,35.60
2017-12-08T02:11:31.360Z,38.80
2017-12-08T02:12:06.862Z,40.10
2017-12-08T02:12:42.264Z,30.10
2017-12-08T02:13:17.444Z,31.40
2017-12-08T02:13:52.847Z,39.30
2017-12-08T02:14:28.427Z,36.30
2017-12-08T02:15:03.625Z,38.50
2017-12-08T02:15:39.100Z,41.50
2017-12-08T02:16:14.408Z,45.80
2017-12-08T02:16:49.483Z,46.00
2017-12-08T02:17:24.822Z,36.50
2017-12-08T02:18:00.299Z,29.60
2017-12-08T02:18:35.607Z,28.60
2017-12-08T02:19:10.783Z,36.90
2017-12-08T02:19:45.983Z,37.40
2017-12-08T02:20:21.175Z,37.30
2017-12-08T02:20:56.584Z,35.40
2017-12-08T02:21:32.059Z,35.90
2017-12-08T02:22:07.566Z,32.50
2017-12-08T02:22:42.776Z,32.70
2017-12-08T02:23:18.082Z,35.70
2017-12-08T02:23:53.462Z,33.00
2017-12-08T02:24:28.676Z,29.50
2017-12-08T02:25:03.848Z,33.00
2017-12-08T02:25:39.352Z,35.40
2017-12-08T02:26:14.634Z,32.90
2017-12-08T02:26:50.037Z,26.60
2017-12-08T02:27:25.022Z,30.40
2017-12-08T02:28:00.557Z,34.00
2017-12-08T02:28:35.945Z,34.10
2017-12-08T02:29:11.346Z,30.10
2017-12-08T02:29:46.530Z,31.90
2017-12-08T02:30:22.038Z,34.40
2017-12-08T02:30:57.117Z,35.10
2017-12-08T02:31:32.526Z,34.10
2017-12-08T02:32:07.604Z,37.90
2017-12-08T02:32:45.913Z,30.50
2017-12-08T02:33:21.527Z,27.10
2017-12-08T02:33:56.829Z,28.90
2017-12-08T02:34:32.106Z,29.70
2017-12-08T02:35:07.510Z,37.30
2017-12-08T02:35:42.704Z,35.00
2017-12-08T02:36:17.906Z,28.90
2017-12-08T02:36:53.288Z,33.40
2017-12-08T02:37:28.588Z,36.60
2017-12-08T02:38:03.973Z,28.60
2017-12-08T02:38:39.302Z,27.10
2017-12-08T02:39:14.682Z,33.10
2017-12-08T02:39:50.085Z,37.70
2017-12-08T02:40:25.360Z,36.10
2017-12-08T02:41:00.864Z,45.90
2017-12-08T02:41:36.240Z,40.40
2017-12-08T02:42:11.548Z,37.10
2017-12-08T02:42:50.932Z,31.10
2017-12-08T02:43:26.534Z,23.80
2017-12-08T02:44:01.735Z,22.70
2017-12-08T02:44:37.241Z,25.50
2017-12-08T02:45:12.949Z,31.50
2017-12-08T02:45:48.347Z,29.80
2017-12-08T02:46:24.531Z,29.30
2017-12-08T02:47:00.033Z,27.40
2017-12-08T02:47:35.505Z,31.30
2017-12-08T02:48:10.913Z,31.10
2017-12-08T02:48:46.185Z,35.30
2017-12-08T02:49:22.029Z,32.80
2017-12-08T02:49:57.113Z,34.70
2017-12-08T02:50:32.721Z,34.10
2017-12-08T02:51:08.194Z,28.90
2017-12-08T02:51:44.002Z,26.60
2017-12-08T02:52:19.383Z,25.60
2017-12-08T02:52:54.989Z,27.50
2017-12-08T02:53:30.477Z,30.60
2017-12-08T02:54:06.289Z,28.70
2017-12-08T02:54:41.717Z,28.80
2017-12-08T02:55:16.924Z,26.30
2017-12-08T02:55:52.810Z,32.10
2017-12-08T02:56:28.119Z,25.40
2017-12-08T02:57:03.508Z,29.40
2017-12-08T02:57:38.820Z,34.50
2017-12-08T02:58:14.119Z,32.40
2017-12-08T02:58:49.530Z,28.40
2017-12-08T02:59:24.620Z,24.20
2017-12-08T03:00:00.356Z,25.70
2017-12-08T03:00:35.658Z,24.00
2017-12-08T03:01:11.064Z,21.70
2017-12-08T03:01:46.442Z,27.10
2017-12-08T03:02:21.650Z,40.80
2017-12-08T03:02:56.830Z,32.80
2017-12-08T03:03:32.133Z,26.50
2017-12-08T03:04:07.520Z,33.50
2017-12-08T03:04:43.035Z,28.80
2017-12-08T03:05:18.344Z,26.70
2017-12-08T03:05:53.363Z,28.90
2017-12-08T03:06:28.765Z,30.70
2017-12-08T03:07:04.158Z,26.50
2017-12-08T03:07:42.534Z,23.50
2017-12-08T03:08:22.728Z,27.60
2017-12-08T03:08:58.010Z,27.60
2017-12-08T03:09:33.222Z,21.70
2017-12-08T03:10:08.806Z,20.00
2017-12-08T03:10:46.043Z,19.20
2017-12-08T03:11:22.837Z,22.60
2017-12-08T03:11:58.247Z,29.00
2017-12-08T03:12:33.537Z,28.00
2017-12-08T03:13:10.861Z,26.70
2017-12-08T03:13:46.519Z,30.40
2017-12-08T03:14:23.632Z,29.20
2017-12-08T03:14:58.915Z,28.60
2017-12-08T03:15:34.221Z,29.70
2017-12-08T03:16:09.733Z,25.40
2017-12-08T03:16:45.037Z,24.50
2017-12-08T03:17:20.219Z,20.80
2017-12-08T03:17:55.326Z,21.80
2017-12-08T03:18:30.506Z,21.60
2017-12-08T03:19:06.017Z,25.40
2017-12-08T03:19:42.903Z,22.60
2017-12-08T03:20:18.676Z,25.40
2017-12-08T03:20:53.967Z,30.80
2017-12-08T03:21:29.224Z,32.60
2017-12-08T03:22:04.718Z,27.20
2017-12-08T03:22:40.032Z,23.80
2017-12-08T03:23:15.320Z,22.90
2017-12-08T03:23:50.831Z,29.60
2017-12-08T03:24:26.211Z,26.60
2017-12-08T03:25:01.625Z,24.90
2017-12-08T03:25:36.907Z,25.40
2017-12-08T03:26:12.516Z,25.20
2017-12-08T03:26:47.840Z,24.10
2017-12-08T03:27:23.459Z,26.50
2017-12-08T03:27:58.747Z,28.50
2017-12-08T03:28:33.859Z,25.80
2017-12-08T03:29:09.143Z,28.80
2017-12-08T03:29:45.037Z,26.10
2017-12-08T03:30:20.656Z,29.60
2017-12-08T03:30:55.881Z,30.70
2017-12-08T03:31:31.265Z,24.20
2017-12-08T03:32:06.911Z,30.60
2017-12-08T03:32:42.093Z,25.60
2017-12-08T03:33:17.505Z,21.50
2017-12-08T03:33:52.783Z,25.60
2017-12-08T03:34:27.999Z,25.30
2017-12-08T03:35:03.594Z,25.10
2017-12-08T03:35:39.009Z,30.90
2017-12-08T03:36:14.291Z,26.60
2017-12-08T03:36:49.718Z,26.50
2017-12-08T03:37:25.036Z,27.70
2017-12-08T03:38:00.247Z,29.50
2017-12-08T03:38:35.833Z,28.00
2017-12-08T03:39:11.245Z,33.00
2017-12-08T03:39:46.428Z,26.90
2017-12-08T03:40:21.540Z,25.20
2017-12-08T03:40:56.624Z,28.90
2017-12-08T03:41:31.844Z,24.80
2017-12-08T03:42:07.321Z,26.10
2017-12-08T03:42:42.566Z,26.90
2017-12-08T03:43:17.650Z,28.50
2017-12-08T03:43:52.856Z,37.00
2017-12-08T03:44:28.043Z,30.50
2017-12-08T03:45:04.356Z,31.70
2017-12-08T03:45:39.642Z,29.50
2017-12-08T03:46:14.850Z,26.10
2017-12-08T03:46:50.132Z,27.30
2017-12-08T03:47:25.345Z,22.00
2017-12-08T03:48:00.751Z,23.40
2017-12-08T03:48:35.978Z,38.50
2017-12-08T03:49:11.556Z,40.30
2017-12-08T03:49:46.767Z,27.90
2017-12-08T03:50:22.455Z,29.60
2017-12-08T03:50:57.969Z,27.50
2017-12-08T03:51:33.160Z,27.80
2017-12-08T03:52:08.369Z,24.70
2017-12-08T03:52:43.558Z,28.90
2017-12-08T03:53:19.196Z,33.20
2017-12-08T03:53:54.379Z,30.90
2017-12-08T03:54:29.888Z,31.50
2017-12-08T03:55:05.273Z,35.80
2017-12-08T03:55:40.592Z,33.20
2017-12-08T03:56:15.675Z,33.70
2017-12-08T03:56:51.085Z,35.80
2017-12-08T03:57:26.368Z,33.10
2017-12-08T03:58:01.579Z,34.50
2017-12-08T03:58:37.090Z,33.60
2017-12-08T03:59:12.412Z,31.40
2017-12-08T03:59:47.702Z,30.00
2017-12-08T04:00:23.114Z,38.80
2017-12-08T04:00:58.397Z,43.50
2017-12-08T04:01:33.619Z,34.20
2017-12-08T04:02:08.791Z,28.70
2017-12-08T04:02:44.102Z,29.50
2017-12-08T04:03:19.484Z,29.80
2017-12-08T04:03:54.830Z,26.80
2017-12-08T04:04:30.112Z,36.90
2017-12-08T04:05:05.535Z,34.90
2017-12-08T04:05:41.333Z,31.00
2017-12-08T04:06:16.862Z,27.00
2017-12-08T04:06:51.965Z,28.60
2017-12-08T04:07:27.293Z,29.70
2017-12-08T04:08:02.787Z,30.00
2017-12-08T04:08:38.209Z,31.70
2017-12-08T04:09:13.641Z,25.90
2017-12-08T04:09:48.660Z,29.60
2017-12-08T04:10:23.852Z,27.60
2017-12-08T04:10:59.183Z,27.30
2017-12-08T04:11:34.569Z,24.40
2017-12-08T04:12:09.790Z,19.30
2017-12-08T04:12:44.984Z,26.30
2017-12-08T04:13:20.314Z,33.90
2017-12-08T04:13:55.807Z,28.90
2017-12-08T04:14:31.479Z,22.90
2017-12-08T04:15:06.780Z,28.70
2017-12-08T04:15:42.293Z,24.00
2017-12-08T04:16:17.893Z,23.50
2017-12-08T04:16:53.303Z,24.10
2017-12-08T04:17:28.711Z,27.70
2017-12-08T04:18:03.832Z,26.70
2017-12-08T04:18:39.128Z,29.70
2017-12-08T04:19:14.359Z,32.40
2017-12-08T04:19:50.086Z,27.10
2017-12-08T04:20:25.417Z,26.40
2017-12-08T04:21:00.715Z,26.20
2017-12-08T04:21:36.738Z,26.20
2017-12-08T04:22:12.053Z,24.30
2017-12-08T04:22:47.284Z,19.90
2017-12-08T04:23:22.685Z,27.10
2017-12-08T04:23:58.421Z,27.60
2017-12-08T04:24:33.828Z,28.70
2017-12-08T04:25:11.785Z,25.30
2017-12-08T04:25:47.039Z,29.60
2017-12-08T04:26:22.465Z,31.40
2017-12-08T04:26:57.640Z,30.40
2017-12-08T04:27:36.164Z,31.10
2017-12-08T04:28:11.558Z,23.10
2017-12-08T04:28:47.105Z,23.40
2017-12-08T04:29:22.603Z,25.40
2017-12-08T04:29:58.032Z,30.40
2017-12-08T04:30:33.533Z,27.80
2017-12-08T04:31:08.964Z,30.50
2017-12-08T04:31:44.455Z,23.50
2017-12-08T04:32:19.872Z,25.70
2017-12-08T04:32:55.268Z,25.40
2017-12-08T04:33:30.682Z,28.10
2017-12-08T04:34:06.063Z,30.20
2017-12-08T04:34:41.297Z,19.50
2017-12-08T04:35:16.500Z,27.30
2017-12-08T04:35:51.840Z,27.60
2017-12-08T04:36:27.326Z,21.80
2017-12-08T04:37:02.731Z,25.40
2017-12-08T04:37:38.142Z,29.80
2017-12-08T04:38:13.658Z,23.50
2017-12-08T04:38:48.961Z,27.40
2017-12-08T04:39:24.171Z,29.00
2017-12-08T04:39:59.462Z,31.30
2017-12-08T04:40:35.171Z,28.00
2017-12-08T04:41:10.598Z,25.50
2017-12-08T04:41:45.802Z,23.50
2017-12-08T04:42:21.516Z,20.90
2017-12-08T04:42:56.922Z,27.30
2017-12-08T04:43:32.098Z,24.80
2017-12-08T04:44:07.304Z,24.70
2017-12-08T04:44:42.603Z,28.80
2017-12-08T04:45:17.809Z,27.20
2017-12-08T04:45:55.486Z,26.00
2017-12-08T04:46:30.938Z,30.10
2017-12-08T04:47:06.120Z,27.40
2017-12-08T04:47:41.628Z,22.50
2017-12-08T04:48:16.634Z,28.30
2017-12-08T04:48:51.873Z,26.70
2017-12-08T04:49:27.069Z,18.40
2017-12-08T04:50:02.693Z,20.00
2017-12-08T04:50:38.385Z,26.70
2017-12-08T04:51:13.394Z,21.50
2017-12-08T04:51:48.804Z,26.60
2017-12-08T04:52:24.625Z,22.00
2017-12-08T04:52:59.707Z,21.60
2017-12-08T04:53:35.249Z,21.50
2017-12-08T04:54:10.568Z,17.90
2017-12-08T04:54:45.950Z,24.00
2017-12-08T04:55:21.541Z,21.20
2017-12-08T04:55:56.966Z,21.70
2017-12-08T04:56:32.258Z,18.70
2017-12-08T04:57:07.504Z,22.40
2017-12-08T04:57:42.709Z,30.40
2017-12-08T04:58:17.939Z,27.60
2017-12-08T04:58:53.237Z,20.10
2017-12-08T04:59:28.566Z,19.30
2017-12-08T05:00:03.763Z,23.20
2017-12-08T05:00:39.184Z,21.70
2017-12-08T05:01:14.568Z,18.60
2017-12-08T05:01:49.813Z,22.50
2017-12-08T05:02:25.428Z,26.30
2017-12-08T05:03:00.849Z,23.70
2017-12-08T05:03:36.433Z,16.30
2017-12-08T05:04:11.638Z,15.80
2017-12-08T05:04:47.020Z,21.90
2017-12-08T05:05:22.534Z,21.80
2017-12-08T05:05:57.759Z,17.10
2017-12-08T05:06:33.427Z,21.50
2017-12-08T05:07:09.115Z,19.70
2017-12-08T05:07:44.466Z,18.30
2017-12-08T05:10:21.180Z,14.80
2017-12-08T05:10:56.764Z,17.80
2017-12-08T05:11:32.319Z,23.80
2017-12-08T05:12:07.705Z,29.80
2017-12-08T05:12:43.065Z,17.70
2017-12-08T05:13:18.376Z,16.10
2017-12-08T05:13:53.630Z,18.50
2017-12-08T05:14:28.913Z,19.40
2017-12-08T05:15:04.272Z,20.50
2017-12-08T05:15:39.662Z,21.30
2017-12-08T05:16:14.817Z,19.00
2017-12-08T05:16:50.005Z,17.80
2017-12-08T05:17:25.468Z,18.30
2017-12-08T05:18:00.662Z,17.60
2017-12-08T05:18:36.167Z,16.30
2017-12-08T05:19:11.355Z,16.50
2017-12-08T05:19:46.614Z,16.80
2017-12-08T05:20:21.795Z,22.00
2017-12-08T05:20:57.349Z,15.40
2017-12-08T05:21:32.734Z,9.50
2017-12-08T05:22:08.094Z,9.10
2017-12-08T05:22:43.983Z,10.30
2017-12-08T05:23:19.336Z,14.00
2017-12-08T05:23:54.549Z,18.80
2017-12-08T05:24:29.614Z,16.50
2017-12-08T05:25:05.212Z,16.60
2017-12-08T05:25:40.579Z,21.30
2017-12-08T05:26:15.874Z,15.80
2017-12-08T05:26:51.246Z,16.50
2017-12-08T05:27:26.436Z,14.00
2017-12-08T05:28:01.703Z,13.00
2017-12-08T05:28:37.092Z,11.80
2017-12-08T05:29:12.684Z,16.50
2017-12-08T05:29:47.982Z,19.70
2017-12-08T05:30:23.253Z,14.20
2017-12-08T05:30:58.651Z,12.40
2017-12-08T05:31:33.811Z,20.90
2017-12-08T05:32:09.103Z,17.40
2017-12-08T05:32:44.669Z,18.30
2017-12-08T05:33:19.861Z,20.70
2017-12-08T05:33:54.826Z,17.40
2017-12-08T05:34:30.248Z,15.90
2017-12-08T05:35:05.531Z,16.70
2017-12-08T05:35:40.925Z,21.30
2017-12-08T05:36:16.192Z,13.00
2017-12-08T05:36:51.585Z,13.30
2017-12-08T05:37:26.748Z,15.90
2017-12-08T05:38:01.945Z,12.90
2017-12-08T05:38:37.119Z,13.00
2017-12-08T05:39:12.214Z,17.60
2017-12-08T05:39:47.606Z,23.10
2017-12-08T05:40:23.003Z,18.20
2017-12-08T05:40:58.379Z,16.90
2017-12-08T05:41:34.103Z,14.40
2017-12-08T05:42:09.477Z,11.10
2017-12-08T05:42:45.275Z,14.20
2017-12-08T05:43:20.365Z,18.10
2017-12-08T05:43:55.670Z,10.60
2017-12-08T05:44:31.153Z,13.10
2017-12-08T05:45:06.377Z,19.80
2017-12-08T05:45:41.637Z,19.90
2017-12-08T05:46:17.040Z,19.70
2017-12-08T05:46:52.528Z,18.70
2017-12-08T05:47:27.941Z,26.80
2017-12-08T05:48:03.313Z,15.90
2017-12-08T05:48:38.922Z,17.90
2017-12-08T05:49:14.305Z,17.10
2017-12-08T05:49:49.421Z,13.60
2017-12-08T05:50:24.615Z,16.60
2017-12-08T05:50:59.937Z,22.10
2017-12-08T05:51:35.423Z,19.80
2017-12-08T05:52:10.823Z,19.20
2017-12-08T05:52:46.202Z,18.60
2017-12-08T05:53:21.817Z,20.10
2017-12-08T05:53:56.995Z,15.20
2017-12-08T05:54:32.393Z,18.30
2017-12-08T05:55:07.982Z,19.20
2017-12-08T05:55:42.917Z,16.70
2017-12-08T05:56:18.178Z,18.70
2017-12-08T05:56:53.494Z,17.20
2017-12-08T05:57:28.785Z,17.20
2017-12-08T05:58:04.183Z,15.70
2017-12-08T05:58:39.562Z,11.40
2017-12-08T05:59:14.860Z,17.60
2017-12-08T05:59:50.135Z,18.40
2017-12-08T06:00:25.442Z,15.70
2017-12-08T06:01:00.934Z,17.90
2017-12-08T06:01:35.937Z,14.40
2017-12-08T06:02:12.048Z,12.80
2017-12-08T06:02:47.457Z,21.80
2017-12-08T06:03:23.026Z,24.20
2017-12-08T06:03:58.432Z,18.10
2017-12-08T06:04:33.812Z,14.90
2017-12-08T06:05:09.007Z,16.50
2017-12-08T06:05:44.366Z,23.00
2017-12-08T06:06:19.696Z,24.10
2017-12-08T06:06:55.963Z,20.70
2017-12-08T06:07:31.162Z,16.70
2017-12-08T06:08:06.530Z,14.40
2017-12-08T06:08:41.816Z,18.40
2017-12-08T06:09:17.097Z,18.30
2017-12-08T06:09:52.805Z,15.50
2017-12-08T06:10:28.273Z,21.40
2017-12-08T06:11:03.772Z,20.10
2017-12-08T06:11:38.981Z,14.90
2017-12-08T06:12:14.278Z,17.00
2017-12-08T06:12:49.645Z,17.30
2017-12-08T06:13:24.640Z,18.50
2017-12-08T06:13:59.800Z,19.30
2017-12-08T06:14:34.995Z,18.50
2017-12-08T06:15:10.266Z,24.20
2017-12-08T06:15:45.555Z,21.20
2017-12-08T06:16:21.035Z,24.70
2017-12-08T06:16:56.356Z,16.00
2017-12-08T06:17:31.618Z,15.00
2017-12-08T06:18:07.224Z,17.30
2017-12-08T06:18:42.597Z,14.60
2017-12-08T06:19:17.797Z,17.20
2017-12-08T06:19:53.179Z,20.00
2017-12-08T06:20:28.288Z,14.00
2017-12-08T06:21:03.657Z,16.40
2017-12-08T06:21:39.179Z,20.40
2017-12-08T06:22:14.674Z,23.10
2017-12-08T06:22:50.270Z,20.60
2017-12-08T06:23:25.548Z,15.40
2017-12-08T06:24:01.037Z,15.10
2017-12-08T06:24:36.204Z,14.10
2017-12-08T06:25:11.307Z,19.50
2017-12-08T06:25:47.179Z,18.70
2017-12-08T06:26:22.370Z,15.60
2017-12-08T06:26:57.733Z,14.60
2017-12-08T06:27:34.974Z,13.00
2017-12-08T06:28:10.624Z,16.10
2017-12-08T06:28:45.732Z,16.60
2017-12-08T06:29:20.906Z,14.20
2017-12-08T06:29:56.306Z,16.40
2017-12-08T06:30:31.477Z,17.10
2017-12-08T06:31:06.775Z,19.20
2017-12-08T06:31:42.057Z,17.20
2017-12-08T06:32:17.476Z,17.30
2017-12-08T06:32:52.880Z,16.70
2017-12-08T06:33:28.537Z,17.50
2017-12-08T06:34:03.924Z,20.70
2017-12-08T06:34:39.442Z,16.00
2017-12-08T06:35:14.730Z,15.50
2017-12-08T06:35:50.045Z,23.20
2017-12-08T06:36:25.422Z,24.30
2017-12-08T06:37:00.820Z,14.90
2017-12-08T06:37:36.090Z,14.30
2017-12-08T06:38:11.522Z,14.30
2017-12-08T06:38:46.823Z,17.20
2017-12-08T06:39:22.633Z,18.60
2017-12-08T06:39:57.905Z,12.60
2017-12-08T06:40:33.119Z,15.10
2017-12-08T06:41:08.408Z,16.70
2017-12-08T06:41:43.902Z,15.30
2017-12-08T06:42:19.083Z,12.10
2017-12-08T06:42:54.298Z,11.70
2017-12-08T06:43:29.604Z,15.80
2017-12-08T06:44:04.999Z,17.20
2017-12-08T06:44:40.166Z,13.20
2017-12-08T06:45:15.368Z,19.60
2017-12-08T06:45:50.347Z,22.70
2017-12-08T06:46:25.680Z,15.80
2017-12-08T06:47:00.941Z,18.00
2017-12-08T06:47:36.354Z,19.20
2017-12-08T06:48:11.727Z,18.10
2017-12-08T06:48:47.006Z,20.20
2017-12-08T06:49:22.232Z,23.90
2017-12-08T06:49:57.520Z,21.50
2017-12-08T06:50:32.685Z,14.30
2017-12-08T06:51:09.790Z,17.70
2017-12-08T06:51:44.951Z,22.40
2017-12-08T06:52:20.656Z,23.10
2017-12-08T06:52:56.012Z,21.50
2017-12-08T06:53:31.317Z,13.60
2017-12-08T06:54:06.517Z,21.60
2017-12-08T06:54:41.716Z,14.20
2017-12-08T06:55:16.584Z,15.50
2017-12-08T06:55:51.979Z,13.50
2017-12-08T06:56:27.347Z,13.60
2017-12-08T06:57:02.641Z,17.60
2017-12-08T06:57:37.817Z,15.00
2017-12-08T06:58:13.113Z,18.50
2017-12-08T06:58:48.484Z,15.80
2017-12-08T06:59:23.794Z,20.10
2017-12-08T06:59:59.058Z,17.00
2017-12-08T07:00:34.264Z,19.00
2017-12-08T07:01:09.736Z,19.90
2017-12-08T07:01:45.039Z,16.10
2017-12-08T07:02:20.510Z,12.30
2017-12-08T07:02:55.812Z,21.40
2017-12-08T07:03:31.182Z,26.50
2017-12-08T07:04:06.678Z,17.80
2017-12-08T07:04:42.076Z,19.70
2017-12-08T07:05:17.269Z,23.90
2017-12-08T07:05:52.455Z,20.00
2017-12-08T07:06:27.873Z,18.30
2017-12-08T07:07:03.152Z,19.40
2017-12-08T07:07:38.336Z,14.10
2017-12-08T07:08:13.606Z,22.70
2017-12-08T07:08:49.234Z,23.00
2017-12-08T07:09:24.705Z,13.30
2017-12-08T07:10:00.134Z,17.50
2017-12-08T07:10:35.603Z,23.30
2017-12-08T07:11:11.097Z,19.50
2017-12-08T07:11:46.465Z,20.90
2017-12-08T07:12:22.048Z,18.80
2017-12-08T07:12:57.222Z,18.00
2017-12-08T07:13:32.618Z,19.10
2017-12-08T07:14:08.089Z,22.70
2017-12-08T07:14:43.778Z,19.50
2017-12-08T07:15:18.963Z,13.90
2017-12-08T07:15:54.352Z,16.50
2017-12-08T07:16:29.340Z,17.00
2017-12-08T07:17:04.641Z,21.90
2017-12-08T07:17:40.204Z,16.10
2017-12-08T07:18:15.604Z,11.70
2017-12-08T07:18:51.168Z,14.50
2017-12-08T07:19:26.466Z,12.80
2017-12-08T07:20:01.836Z,13.00
2017-12-08T07:20:37.468Z,19.00
2017-12-08T07:21:12.928Z,19.90
2017-12-08T07:21:48.419Z,16.50
2017-12-08T07:22:23.782Z,13.80
2017-12-08T07:22:59.524Z,20.70
2017-12-08T07:23:34.637Z,17.60
2017-12-08T07:24:10.124Z,14.90
2017-12-08T07:24:45.490Z,19.50
2017-12-08T07:25:20.982Z,13.10
2017-12-08T07:25:56.417Z,15.40
2017-12-08T07:26:31.809Z,20.20
2017-12-08T07:27:06.977Z,16.20
2017-12-08T07:27:42.074Z,15.50
2017-12-08T07:28:17.349Z,16.10
2017-12-08T07:28:52.635Z,19.90
2017-12-08T07:29:27.901Z,22.40
2017-12-08T07:30:03.127Z,20.80
2017-12-08T07:30:38.792Z,16.80
2017-12-08T07:31:14.219Z,17.80
2017-12-08T07:31:49.179Z,21.80
2017-12-08T07:32:24.468Z,23.40
2017-12-08T07:32:59.733Z,19.70
2017-12-08T07:33:35.023Z,18.30
2017-12-08T07:34:10.190Z,23.50
2017-12-08T07:34:45.481Z,20.20
2017-12-08T07:35:20.851Z,15.90
2017-12-08T07:35:56.468Z,16.70
2017-12-08T07:36:31.846Z,20.80
2017-12-08T07:37:07.243Z,22.10
2017-12-08T07:37:42.311Z,19.00
2017-12-08T07:38:17.700Z,20.30